sensor_id;sensor_type;location;lat;lon;timestamp;temperature;humidity
75964;DHT22;65820;44.726;37.764;2023-03-23T00:00:18;20.73;54.07
75964;DHT22;65820;44.726;37.764;2023-03-23T00:01:22;20.72;54.03
75964;DHT22;65820;44.726;37.764;2023-03-23T00:02:30;20.71;54.11
75964;DHT22;65820;44.726;37.764;2023-03-23T00:03:37;20.70;54.07
75964;DHT22;65820;44.726;37.764;2023-03-23T00:04:39;20.72;54.04
75964;DHT22;65820;44.726;37.764;2023-03-23T00:05:40;20.72;54.04
75964;DHT22;65820;44.726;37.764;2023-03-23T00:06:43;20.72;54.04
75964;DHT22;65820;44.726;37.764;2023-03-23T00:07:46;20.71;54.11
75964;DHT22;65820;44.726;37.764;2023-03-23T00:08:49;20.71;54.04
75964;DHT22;65820;44.726;37.764;2023-03-23T00:09:55;20.72;54.04
75964;DHT22;65820;44.726;37.764;2023-03-23T00:10:56;20.71;54.02
75964;DHT22;65820;44.726;37.764;2023-03-23T00:11:58;20.72;54.00
75964;DHT22;65820;44.726;37.764;2023-03-23T00:13:06;20.71;53.97
75964;DHT22;65820;44.726;37.764;2023-03-23T00:14:08;20.69;53.97
75964;DHT22;65820;44.726;37.764;2023-03-23T00:15:13;20.71;53.97
75964;DHT22;65820;44.726;37.764;2023-03-23T00:16:22;20.71;53.97
75964;DHT22;65820;44.726;37.764;2023-03-23T00:17:31;20.71;53.98
75964;DHT22;65820;44.726;37.764;2023-03-23T00:18:34;20.71;53.98
75964;DHT22;65820;44.726;37.764;2023-03-23T00:19:39;20.71;53.99
75964;DHT22;65820;44.726;37.764;2023-03-23T00:20:48;20.70;53.97
75964;DHT22;65820;44.726;37.764;2023-03-23T00:21:50;20.71;53.99
75964;DHT22;65820;44.726;37.764;2023-03-23T00:22:55;20.70;53.97
75964;DHT22;65820;44.726;37.764;2023-03-23T00:25:09;20.70;54.00
75964;DHT22;65820;44.726;37.764;2023-03-23T00:26:11;20.70;54.07
75964;DHT22;65820;44.726;37.764;2023-03-23T00:27:13;20.71;54.07
75964;DHT22;65820;44.726;37.764;2023-03-23T00:28:17;20.70;54.08
75964;DHT22;65820;44.726;37.764;2023-03-23T00:29:22;20.71;54.07
75964;DHT22;65820;44.726;37.764;2023-03-23T00:30:26;20.70;54.11
75964;DHT22;65820;44.726;37.764;2023-03-23T00:31:28;20.71;54.11
75964;DHT22;65820;44.726;37.764;2023-03-23T00:32:33;20.70;54.09
75964;DHT22;65820;44.726;37.764;2023-03-23T00:33:37;20.71;54.17
75964;DHT22;65820;44.726;37.764;2023-03-23T00:34:40;20.70;54.12
75964;DHT22;65820;44.726;37.764;2023-03-23T00:35:42;20.71;54.14
75964;DHT22;65820;44.726;37.764;2023-03-23T00:36:50;20.70;54.15
75964;DHT22;65820;44.726;37.764;2023-03-23T00:37:51;20.71;54.13
75964;DHT22;65820;44.726;37.764;2023-03-23T00:38:55;20.70;54.19
75964;DHT22;65820;44.726;37.764;2023-03-23T00:39:59;20.69;54.17
75964;DHT22;65820;44.726;37.764;2023-03-23T00:41:02;20.70;54.07
75964;DHT22;65820;44.726;37.764;2023-03-23T00:42:04;20.71;54.12
75964;DHT22;65820;44.726;37.764;2023-03-23T00:43:06;20.71;54.10
75964;DHT22;65820;44.726;37.764;2023-03-23T00:44:09;20.70;54.06
75964;DHT22;65820;44.726;37.764;2023-03-23T00:45:11;20.70;54.06
75964;DHT22;65820;44.726;37.764;2023-03-23T00:46:12;20.71;54.07
75964;DHT22;65820;44.726;37.764;2023-03-23T00:47:14;20.70;54.07
75964;DHT22;65820;44.726;37.764;2023-03-23T00:48:22;20.70;54.10
75964;DHT22;65820;44.726;37.764;2023-03-23T00:49:25;20.70;54.10
75964;DHT22;65820;44.726;37.764;2023-03-23T00:50:27;20.70;54.10
75964;DHT22;65820;44.726;37.764;2023-03-23T00:51:28;20.71;54.13
75964;DHT22;65820;44.726;37.764;2023-03-23T00:52:30;20.69;54.13
75964;DHT22;65820;44.726;37.764;2023-03-23T00:53:32;20.70;54.19
75964;DHT22;65820;44.726;37.764;2023-03-23T00:54:34;20.71;54.24
75964;DHT22;65820;44.726;37.764;2023-03-23T00:55:43;20.72;54.16
75964;DHT22;65820;44.726;37.764;2023-03-23T00:56:44;20.71;54.07
75964;DHT22;65820;44.726;37.764;2023-03-23T00:57:46;20.72;54.10
75964;DHT22;65820;44.726;37.764;2023-03-23T00:58:49;20.71;54.13
75964;DHT22;65820;44.726;37.764;2023-03-23T00:59:51;20.73;54.10
75964;DHT22;65820;44.726;37.764;2023-03-23T01:00:53;20.73;54.04
75964;DHT22;65820;44.726;37.764;2023-03-23T01:01:55;20.71;54.06
75964;DHT22;65820;44.726;37.764;2023-03-23T01:02:56;20.73;54.05
75964;DHT22;65820;44.726;37.764;2023-03-23T01:03:59;20.72;53.94
75964;DHT22;65820;44.726;37.764;2023-03-23T01:05:05;20.73;53.79
75964;DHT22;65820;44.726;37.764;2023-03-23T01:06:09;20.73;53.91
75964;DHT22;65820;44.726;37.764;2023-03-23T01:07:36;20.73;53.88
75964;DHT22;65820;44.726;37.764;2023-03-23T01:08:41;20.73;53.91
75964;DHT22;65820;44.726;37.764;2023-03-23T01:09:47;20.73;53.68
75964;DHT22;65820;44.726;37.764;2023-03-23T01:10:50;20.72;53.75
75964;DHT22;65820;44.726;37.764;2023-03-23T01:11:53;20.72;53.65
75964;DHT22;65820;44.726;37.764;2023-03-23T01:12:56;20.73;53.75
75964;DHT22;65820;44.726;37.764;2023-03-23T01:13:58;20.73;53.73
75964;DHT22;65820;44.726;37.764;2023-03-23T01:14:59;20.73;53.78
75964;DHT22;65820;44.726;37.764;2023-03-23T01:16:01;20.73;53.84
75964;DHT22;65820;44.726;37.764;2023-03-23T01:17:04;20.73;53.78
75964;DHT22;65820;44.726;37.764;2023-03-23T01:18:06;20.73;53.66
75964;DHT22;65820;44.726;37.764;2023-03-23T01:19:08;20.73;53.69
75964;DHT22;65820;44.726;37.764;2023-03-23T01:20:13;20.75;53.65
75964;DHT22;65820;44.726;37.764;2023-03-23T01:21:20;20.72;53.65
75964;DHT22;65820;44.726;37.764;2023-03-23T01:22:24;20.73;53.72
75964;DHT22;65820;44.726;37.764;2023-03-23T01:23:26;20.73;53.71
75964;DHT22;65820;44.726;37.764;2023-03-23T01:24:27;20.73;53.75
75964;DHT22;65820;44.726;37.764;2023-03-23T01:25:30;20.73;53.64
75964;DHT22;65820;44.726;37.764;2023-03-23T01:26:32;20.71;53.65
75964;DHT22;65820;44.726;37.764;2023-03-23T01:27:33;20.73;53.59
75964;DHT22;65820;44.726;37.764;2023-03-23T01:28:36;20.73;53.69
75964;DHT22;65820;44.726;37.764;2023-03-23T01:29:37;20.72;53.71
75964;DHT22;65820;44.726;37.764;2023-03-23T01:30:39;20.73;53.77
75964;DHT22;65820;44.726;37.764;2023-03-23T01:31:40;20.73;53.62
75964;DHT22;65820;44.726;37.764;2023-03-23T01:32:43;20.73;53.49
75964;DHT22;65820;44.726;37.764;2023-03-23T01:33:45;20.72;53.59
75964;DHT22;65820;44.726;37.764;2023-03-23T01:34:47;20.73;53.62
75964;DHT22;65820;44.726;37.764;2023-03-23T01:35:48;20.73;53.50
75964;DHT22;65820;44.726;37.764;2023-03-23T01:36:50;20.72;53.59
75964;DHT22;65820;44.726;37.764;2023-03-23T01:37:51;20.73;53.68
75964;DHT22;65820;44.726;37.764;2023-03-23T01:38:53;20.73;53.66
75964;DHT22;65820;44.726;37.764;2023-03-23T01:39:56;20.73;53.57
75964;DHT22;65820;44.726;37.764;2023-03-23T01:40:58;20.72;53.44
75964;DHT22;65820;44.726;37.764;2023-03-23T01:42:00;20.72;53.47
75964;DHT22;65820;44.726;37.764;2023-03-23T01:43:01;20.72;53.46
75964;DHT22;65820;44.726;37.764;2023-03-23T01:44:06;20.72;53.52
75964;DHT22;65820;44.726;37.764;2023-03-23T01:45:22;20.73;53.62
75964;DHT22;65820;44.726;37.764;2023-03-23T01:46:28;20.72;53.63
75964;DHT22;65820;44.726;37.764;2023-03-23T01:47:32;20.72;53.60
75964;DHT22;65820;44.726;37.764;2023-03-23T01:48:35;20.71;53.60
75964;DHT22;65820;44.726;37.764;2023-03-23T01:49:41;20.71;53.55
75964;DHT22;65820;44.726;37.764;2023-03-23T01:50:58;20.72;53.40
75964;DHT22;65820;44.726;37.764;2023-03-23T01:52:12;20.73;53.46
75964;DHT22;65820;44.726;37.764;2023-03-23T01:53:20;20.71;53.52
75964;DHT22;65820;44.726;37.764;2023-03-23T01:54:23;20.71;53.63
75964;DHT22;65820;44.726;37.764;2023-03-23T01:55:27;20.71;53.49
75964;DHT22;65820;44.726;37.764;2023-03-23T01:56:35;20.71;53.43
75964;DHT22;65820;44.726;37.764;2023-03-23T01:57:42;20.72;53.40
75964;DHT22;65820;44.726;37.764;2023-03-23T01:58:44;20.72;53.42
75964;DHT22;65820;44.726;37.764;2023-03-23T01:59:49;20.73;53.43
75964;DHT22;65820;44.726;37.764;2023-03-23T02:01:03;20.71;53.47
75964;DHT22;65820;44.726;37.764;2023-03-23T02:02:05;20.72;53.42
75964;DHT22;65820;44.726;37.764;2023-03-23T02:03:07;20.71;53.34
75964;DHT22;65820;44.726;37.764;2023-03-23T02:04:10;20.72;53.59
75964;DHT22;65820;44.726;37.764;2023-03-23T02:05:27;20.72;53.32
75964;DHT22;65820;44.726;37.764;2023-03-23T02:06:30;20.71;53.38
75964;DHT22;65820;44.726;37.764;2023-03-23T02:07:46;20.72;53.39
75964;DHT22;65820;44.726;37.764;2023-03-23T02:08:50;20.72;53.34
75964;DHT22;65820;44.726;37.764;2023-03-23T02:09:52;20.71;53.39
75964;DHT22;65820;44.726;37.764;2023-03-23T02:10:54;20.72;53.36
75964;DHT22;65820;44.726;37.764;2023-03-23T02:11:56;20.70;53.46
75964;DHT22;65820;44.726;37.764;2023-03-23T02:12:59;20.72;53.33
75964;DHT22;65820;44.726;37.764;2023-03-23T02:14:02;20.70;53.35
75964;DHT22;65820;44.726;37.764;2023-03-23T02:15:05;20.70;53.31
75964;DHT22;65820;44.726;37.764;2023-03-23T02:16:21;20.71;53.36
75964;DHT22;65820;44.726;37.764;2023-03-23T02:17:35;20.71;53.31
75964;DHT22;65820;44.726;37.764;2023-03-23T02:20:23;20.70;53.35
75964;DHT22;65820;44.726;37.764;2023-03-23T02:23:07;20.72;53.27
75964;DHT22;65820;44.726;37.764;2023-03-23T02:26:22;20.71;53.33
75964;DHT22;65820;44.726;37.764;2023-03-23T02:30:29;20.69;53.27
75964;DHT22;65820;44.726;37.764;2023-03-23T02:34:23;20.70;53.20
75964;DHT22;65820;44.726;37.764;2023-03-23T02:35:32;20.69;53.26
75964;DHT22;65820;44.726;37.764;2023-03-23T02:36:50;20.68;53.32
75964;DHT22;65820;44.726;37.764;2023-03-23T02:38:00;20.68;53.27
75964;DHT22;65820;44.726;37.764;2023-03-23T02:39:24;20.68;53.29
75964;DHT22;65820;44.726;37.764;2023-03-23T02:40:40;20.68;53.18
75964;DHT22;65820;44.726;37.764;2023-03-23T02:41:47;20.68;53.30
75964;DHT22;65820;44.726;37.764;2023-03-23T02:42:53;20.68;53.23
75964;DHT22;65820;44.726;37.764;2023-03-23T02:43:56;20.68;53.20
75964;DHT22;65820;44.726;37.764;2023-03-23T02:44:58;20.66;53.27
75964;DHT22;65820;44.726;37.764;2023-03-23T02:46:05;20.65;53.27
75964;DHT22;65820;44.726;37.764;2023-03-23T02:47:14;20.66;53.32
75964;DHT22;65820;44.726;37.764;2023-03-23T02:48:20;20.66;53.23
75964;DHT22;65820;44.726;37.764;2023-03-23T02:49:25;20.68;53.22
75964;DHT22;65820;44.726;37.764;2023-03-23T02:50:29;20.66;53.20
75964;DHT22;65820;44.726;37.764;2023-03-23T02:51:34;20.66;53.17
75964;DHT22;65820;44.726;37.764;2023-03-23T02:52:39;20.65;53.16
75964;DHT22;65820;44.726;37.764;2023-03-23T02:53:43;20.66;53.18
75964;DHT22;65820;44.726;37.764;2023-03-23T02:54:46;20.68;53.19
75964;DHT22;65820;44.726;37.764;2023-03-23T02:55:48;20.66;53.22
75964;DHT22;65820;44.726;37.764;2023-03-23T02:56:56;20.66;53.33
75964;DHT22;65820;44.726;37.764;2023-03-23T02:58:02;20.66;53.19
75964;DHT22;65820;44.726;37.764;2023-03-23T02:59:04;20.66;53.17
75964;DHT22;65820;44.726;37.764;2023-03-23T03:00:08;20.65;53.17
75964;DHT22;65820;44.726;37.764;2023-03-23T03:02:42;20.66;53.21
75964;DHT22;65820;44.726;37.764;2023-03-23T03:03:45;20.66;53.15
75964;DHT22;65820;44.726;37.764;2023-03-23T03:07:46;20.65;53.23
75964;DHT22;65820;44.726;37.764;2023-03-23T03:09:21;20.64;53.11
75964;DHT22;65820;44.726;37.764;2023-03-23T03:11:42;20.65;53.29
75964;DHT22;65820;44.726;37.764;2023-03-23T03:13:03;20.65;53.23
75964;DHT22;65820;44.726;37.764;2023-03-23T03:14:10;20.65;53.07
75964;DHT22;65820;44.726;37.764;2023-03-23T03:15:30;20.65;53.07
75964;DHT22;65820;44.726;37.764;2023-03-23T03:16:46;20.66;53.08
75964;DHT22;65820;44.726;37.764;2023-03-23T03:18:03;20.64;53.10
75964;DHT22;65820;44.726;37.764;2023-03-23T03:20:14;20.65;53.08
75964;DHT22;65820;44.726;37.764;2023-03-23T03:21:17;20.64;53.07
75964;DHT22;65820;44.726;37.764;2023-03-23T03:22:23;20.63;53.07
75964;DHT22;65820;44.726;37.764;2023-03-23T03:23:26;20.64;53.01
75964;DHT22;65820;44.726;37.764;2023-03-23T03:24:31;20.64;53.05
75964;DHT22;65820;44.726;37.764;2023-03-23T03:25:33;20.64;53.15
75964;DHT22;65820;44.726;37.764;2023-03-23T03:26:37;20.65;53.12
75964;DHT22;65820;44.726;37.764;2023-03-23T03:27:56;20.64;53.11
75964;DHT22;65820;44.726;37.764;2023-03-23T03:29:21;20.65;53.04
75964;DHT22;65820;44.726;37.764;2023-03-23T03:30:30;20.65;53.05
75964;DHT22;65820;44.726;37.764;2023-03-23T03:31:38;20.65;53.35
75964;DHT22;65820;44.726;37.764;2023-03-23T03:32:44;20.65;53.36
75964;DHT22;65820;44.726;37.764;2023-03-23T03:33:48;20.64;53.41
75964;DHT22;65820;44.726;37.764;2023-03-23T03:34:50;20.65;53.34
75964;DHT22;65820;44.726;37.764;2023-03-23T03:35:54;20.64;53.30
75964;DHT22;65820;44.726;37.764;2023-03-23T03:36:57;20.63;53.35
75964;DHT22;65820;44.726;37.764;2023-03-23T03:38:06;20.63;53.31
75964;DHT22;65820;44.726;37.764;2023-03-23T03:39:09;20.65;53.32
75964;DHT22;65820;44.726;37.764;2023-03-23T03:40:16;20.65;53.42
75964;DHT22;65820;44.726;37.764;2023-03-23T03:41:19;20.64;53.36
75964;DHT22;65820;44.726;37.764;2023-03-23T03:42:22;20.64;53.36
75964;DHT22;65820;44.726;37.764;2023-03-23T03:43:26;20.66;53.44
75964;DHT22;65820;44.726;37.764;2023-03-23T03:44:28;20.65;53.42
75964;DHT22;65820;44.726;37.764;2023-03-23T03:45:31;20.68;53.36
75964;DHT22;65820;44.726;37.764;2023-03-23T03:46:34;20.68;53.39
75964;DHT22;65820;44.726;37.764;2023-03-23T03:47:35;20.68;53.36
75964;DHT22;65820;44.726;37.764;2023-03-23T03:48:37;20.68;53.30
75964;DHT22;65820;44.726;37.764;2023-03-23T03:49:39;20.69;53.41
75964;DHT22;65820;44.726;37.764;2023-03-23T03:50:42;20.69;53.51
75964;DHT22;65820;44.726;37.764;2023-03-23T03:51:43;20.68;53.41
75964;DHT22;65820;44.726;37.764;2023-03-23T03:52:55;20.69;53.44
75964;DHT22;65820;44.726;37.764;2023-03-23T03:53:56;20.68;53.29
75964;DHT22;65820;44.726;37.764;2023-03-23T03:54:58;20.70;53.23
75964;DHT22;65820;44.726;37.764;2023-03-23T03:56:01;20.69;53.37
75964;DHT22;65820;44.726;37.764;2023-03-23T03:57:10;20.69;53.29
75964;DHT22;65820;44.726;37.764;2023-03-23T03:58:31;20.68;53.24
75964;DHT22;65820;44.726;37.764;2023-03-23T03:59:58;20.69;53.19
75964;DHT22;65820;44.726;37.764;2023-03-23T04:01:20;20.69;53.24
75964;DHT22;65820;44.726;37.764;2023-03-23T04:02:25;20.68;53.19
75964;DHT22;65820;44.726;37.764;2023-03-23T04:03:28;20.68;53.21
75964;DHT22;65820;44.726;37.764;2023-03-23T04:04:42;20.71;53.25
75964;DHT22;65820;44.726;37.764;2023-03-23T04:05:44;20.71;53.40
75964;DHT22;65820;44.726;37.764;2023-03-23T04:06:47;20.70;53.52
75964;DHT22;65820;44.726;37.764;2023-03-23T04:07:50;20.72;53.67
75964;DHT22;65820;44.726;37.764;2023-03-23T04:08:59;20.71;53.62
75964;DHT22;65820;44.726;37.764;2023-03-23T04:10:03;20.72;53.63
75964;DHT22;65820;44.726;37.764;2023-03-23T04:11:06;20.72;53.74
75964;DHT22;65820;44.726;37.764;2023-03-23T04:12:12;20.74;53.53
75964;DHT22;65820;44.726;37.764;2023-03-23T04:13:31;20.73;53.48
75964;DHT22;65820;44.726;37.764;2023-03-23T04:14:42;20.74;53.89
75964;DHT22;65820;44.726;37.764;2023-03-23T04:15:44;20.74;53.73
75964;DHT22;65820;44.726;37.764;2023-03-23T04:16:47;20.76;53.88
75964;DHT22;65820;44.726;37.764;2023-03-23T04:17:49;20.75;53.59
75964;DHT22;65820;44.726;37.764;2023-03-23T04:18:51;20.74;53.51
75964;DHT22;65820;44.726;37.764;2023-03-23T04:19:54;20.75;53.40
75964;DHT22;65820;44.726;37.764;2023-03-23T04:21:02;20.74;53.63
75964;DHT22;65820;44.726;37.764;2023-03-23T04:22:05;20.75;53.52
75964;DHT22;65820;44.726;37.764;2023-03-23T04:23:10;20.76;53.44
75964;DHT22;65820;44.726;37.764;2023-03-23T04:24:11;20.76;53.30
75964;DHT22;65820;44.726;37.764;2023-03-23T04:25:14;20.75;53.36
75964;DHT22;65820;44.726;37.764;2023-03-23T04:26:17;20.77;53.77
75964;DHT22;65820;44.726;37.764;2023-03-23T04:27:23;20.77;53.89
75964;DHT22;65820;44.726;37.764;2023-03-23T04:28:26;20.77;54.48
75964;DHT22;65820;44.726;37.764;2023-03-23T04:29:51;20.78;53.69
75964;DHT22;65820;44.726;37.764;2023-03-23T04:31:10;20.78;53.91
75964;DHT22;65820;44.726;37.764;2023-03-23T04:32:18;20.78;53.74
75964;DHT22;65820;44.726;37.764;2023-03-23T04:33:27;20.79;53.75
75964;DHT22;65820;44.726;37.764;2023-03-23T04:34:29;20.79;53.71
75964;DHT22;65820;44.726;37.764;2023-03-23T04:35:33;20.77;53.43
75964;DHT22;65820;44.726;37.764;2023-03-23T04:36:48;20.78;53.38
75964;DHT22;65820;44.726;37.764;2023-03-23T04:37:55;20.76;53.49
75964;DHT22;65820;44.726;37.764;2023-03-23T04:38:57;20.76;53.46
75964;DHT22;65820;44.726;37.764;2023-03-23T04:40:00;20.76;53.34
75964;DHT22;65820;44.726;37.764;2023-03-23T04:41:02;20.75;53.45
75964;DHT22;65820;44.726;37.764;2023-03-23T04:42:34;20.77;53.73
75964;DHT22;65820;44.726;37.764;2023-03-23T04:44:04;20.78;53.69
75964;DHT22;65820;44.726;37.764;2023-03-23T04:45:15;20.78;53.50
75964;DHT22;65820;44.726;37.764;2023-03-23T04:46:17;20.77;53.46
75964;DHT22;65820;44.726;37.764;2023-03-23T04:47:20;20.76;53.49
75964;DHT22;65820;44.726;37.764;2023-03-23T04:48:30;20.76;53.46
75964;DHT22;65820;44.726;37.764;2023-03-23T04:50:00;20.76;53.56
75964;DHT22;65820;44.726;37.764;2023-03-23T04:51:11;20.75;53.48
75964;DHT22;65820;44.726;37.764;2023-03-23T04:52:14;20.75;53.52
75964;DHT22;65820;44.726;37.764;2023-03-23T04:53:23;20.75;53.61
75964;DHT22;65820;44.726;37.764;2023-03-23T04:54:24;20.75;53.65
75964;DHT22;65820;44.726;37.764;2023-03-23T04:55:35;20.75;53.65
75964;DHT22;65820;44.726;37.764;2023-03-23T04:56:41;20.75;53.68
75964;DHT22;65820;44.726;37.764;2023-03-23T04:57:48;20.74;53.65
75964;DHT22;65820;44.726;37.764;2023-03-23T04:59:03;20.75;53.69
75964;DHT22;65820;44.726;37.764;2023-03-23T05:00:17;20.74;53.74
75964;DHT22;65820;44.726;37.764;2023-03-23T05:01:24;20.74;53.72
75964;DHT22;65820;44.726;37.764;2023-03-23T05:03:01;20.73;53.70
75964;DHT22;65820;44.726;37.764;2023-03-23T05:04:05;20.73;53.74
75964;DHT22;65820;44.726;37.764;2023-03-23T05:05:08;20.73;53.75
75964;DHT22;65820;44.726;37.764;2023-03-23T05:06:11;20.74;53.70
75964;DHT22;65820;44.726;37.764;2023-03-23T05:07:13;20.74;53.69
75964;DHT22;65820;44.726;37.764;2023-03-23T05:08:22;20.74;53.91
75964;DHT22;65820;44.726;37.764;2023-03-23T05:09:26;20.76;53.78
75964;DHT22;65820;44.726;37.764;2023-03-23T05:10:27;20.76;53.93
75964;DHT22;65820;44.726;37.764;2023-03-23T05:11:35;20.77;53.81
75964;DHT22;65820;44.726;37.764;2023-03-23T05:12:38;20.76;53.86
75964;DHT22;65820;44.726;37.764;2023-03-23T05:13:42;20.78;53.94
75964;DHT22;65820;44.726;37.764;2023-03-23T05:14:46;20.77;53.90
75964;DHT22;65820;44.726;37.764;2023-03-23T05:15:51;20.78;53.79
75964;DHT22;65820;44.726;37.764;2023-03-23T05:16:53;20.77;53.89
75964;DHT22;65820;44.726;37.764;2023-03-23T05:17:55;20.78;53.81
75964;DHT22;65820;44.726;37.764;2023-03-23T05:18:57;20.78;53.85
75964;DHT22;65820;44.726;37.764;2023-03-23T05:20:02;20.77;53.90
75964;DHT22;65820;44.726;37.764;2023-03-23T05:21:17;20.77;53.81
75964;DHT22;65820;44.726;37.764;2023-03-23T05:22:27;20.77;53.78
75964;DHT22;65820;44.726;37.764;2023-03-23T05:23:29;20.78;53.85
75964;DHT22;65820;44.726;37.764;2023-03-23T05:24:39;20.77;53.80
75964;DHT22;65820;44.726;37.764;2023-03-23T05:25:41;20.78;53.83
75964;DHT22;65820;44.726;37.764;2023-03-23T05:26:49;20.76;53.84
75964;DHT22;65820;44.726;37.764;2023-03-23T05:27:58;20.77;53.77
75964;DHT22;65820;44.726;37.764;2023-03-23T05:29:27;20.77;53.83
75964;DHT22;65820;44.726;37.764;2023-03-23T05:30:35;20.77;53.81
75964;DHT22;65820;44.726;37.764;2023-03-23T05:31:37;20.78;53.82
75964;DHT22;65820;44.726;37.764;2023-03-23T05:32:38;20.77;53.78
75964;DHT22;65820;44.726;37.764;2023-03-23T05:33:57;20.78;53.79
75964;DHT22;65820;44.726;37.764;2023-03-23T05:35:07;20.77;53.83
75964;DHT22;65820;44.726;37.764;2023-03-23T05:36:09;20.77;53.78
75964;DHT22;65820;44.726;37.764;2023-03-23T05:37:40;20.77;53.84
75964;DHT22;65820;44.726;37.764;2023-03-23T05:38:44;20.77;53.75
75964;DHT22;65820;44.726;37.764;2023-03-23T05:39:50;20.77;53.75
75964;DHT22;65820;44.726;37.764;2023-03-23T05:40:59;20.77;53.78
75964;DHT22;65820;44.726;37.764;2023-03-23T05:42:11;20.77;53.73
75964;DHT22;65820;44.726;37.764;2023-03-23T05:43:39;20.77;53.79
75964;DHT22;65820;44.726;37.764;2023-03-23T05:44:49;20.77;53.75
75964;DHT22;65820;44.726;37.764;2023-03-23T05:45:50;20.76;53.79
75964;DHT22;65820;44.726;37.764;2023-03-23T05:46:52;20.78;53.70
75964;DHT22;65820;44.726;37.764;2023-03-23T05:47:53;20.77;53.72
75964;DHT22;65820;44.726;37.764;2023-03-23T05:48:56;20.77;53.74
75964;DHT22;65820;44.726;37.764;2023-03-23T05:50:06;20.78;53.73
75964;DHT22;65820;44.726;37.764;2023-03-23T05:51:10;20.78;53.66
75964;DHT22;65820;44.726;37.764;2023-03-23T05:52:15;20.78;53.75
75964;DHT22;65820;44.726;37.764;2023-03-23T05:53:16;20.77;53.72
75964;DHT22;65820;44.726;37.764;2023-03-23T05:54:18;20.78;53.75
75964;DHT22;65820;44.726;37.764;2023-03-23T05:55:22;20.78;53.72
75964;DHT22;65820;44.726;37.764;2023-03-23T05:56:33;20.78;53.71
75964;DHT22;65820;44.726;37.764;2023-03-23T05:57:41;20.77;53.72
75964;DHT22;65820;44.726;37.764;2023-03-23T05:58:54;20.79;53.73
75964;DHT22;65820;44.726;37.764;2023-03-23T05:59:56;20.79;53.70
75964;DHT22;65820;44.726;37.764;2023-03-23T06:00:59;20.78;53.72
75964;DHT22;65820;44.726;37.764;2023-03-23T06:02:04;20.78;53.70
75964;DHT22;65820;44.726;37.764;2023-03-23T06:03:07;20.78;53.75
75964;DHT22;65820;44.726;37.764;2023-03-23T06:04:16;20.79;53.69
75964;DHT22;65820;44.726;37.764;2023-03-23T06:05:42;20.79;53.68
75964;DHT22;65820;44.726;37.764;2023-03-23T06:06:45;20.79;53.71
75964;DHT22;65820;44.726;37.764;2023-03-23T06:07:46;20.79;53.72
75964;DHT22;65820;44.726;37.764;2023-03-23T06:08:48;20.79;53.68
75964;DHT22;65820;44.726;37.764;2023-03-23T06:09:54;20.79;53.69
75964;DHT22;65820;44.726;37.764;2023-03-23T06:11:15;20.80;53.66
75964;DHT22;65820;44.726;37.764;2023-03-23T06:12:27;20.80;53.66
75964;DHT22;65820;44.726;37.764;2023-03-23T06:13:47;20.80;53.69
75964;DHT22;65820;44.726;37.764;2023-03-23T06:14:49;20.80;53.68
75964;DHT22;65820;44.726;37.764;2023-03-23T06:15:57;20.80;53.70
75964;DHT22;65820;44.726;37.764;2023-03-23T06:17:20;20.79;53.72
75964;DHT22;65820;44.726;37.764;2023-03-23T06:18:26;20.79;53.65
75964;DHT22;65820;44.726;37.764;2023-03-23T06:19:39;20.80;53.69
75964;DHT22;65820;44.726;37.764;2023-03-23T06:20:47;20.79;53.65
75964;DHT22;65820;44.726;37.764;2023-03-23T06:22:09;20.80;53.66
75964;DHT22;65820;44.726;37.764;2023-03-23T06:23:30;20.79;53.68
75964;DHT22;65820;44.726;37.764;2023-03-23T06:24:32;20.79;53.67
75964;DHT22;65820;44.726;37.764;2023-03-23T06:25:34;20.80;53.65
75964;DHT22;65820;44.726;37.764;2023-03-23T06:26:38;20.80;53.68
75964;DHT22;65820;44.726;37.764;2023-03-23T06:27:44;20.79;53.65
75964;DHT22;65820;44.726;37.764;2023-03-23T06:28:47;20.80;53.69
75964;DHT22;65820;44.726;37.764;2023-03-23T06:29:49;20.79;53.66
75964;DHT22;65820;44.726;37.764;2023-03-23T06:30:51;20.80;53.69
75964;DHT22;65820;44.726;37.764;2023-03-23T06:31:59;20.80;53.70
75964;DHT22;65820;44.726;37.764;2023-03-23T06:33:02;20.80;53.71
75964;DHT22;65820;44.726;37.764;2023-03-23T06:34:29;20.81;53.69
75964;DHT22;65820;44.726;37.764;2023-03-23T06:35:49;20.80;53.70
75964;DHT22;65820;44.726;37.764;2023-03-23T06:37:03;20.81;53.65
75964;DHT22;65820;44.726;37.764;2023-03-23T06:38:11;20.81;53.68
75964;DHT22;65820;44.726;37.764;2023-03-23T06:39:22;20.80;53.68
75964;DHT22;65820;44.726;37.764;2023-03-23T06:40:52;20.81;53.63
75964;DHT22;65820;44.726;37.764;2023-03-23T06:41:53;20.81;53.68
75964;DHT22;65820;44.726;37.764;2023-03-23T06:42:58;20.83;53.70
75964;DHT22;65820;44.726;37.764;2023-03-23T06:44:23;20.83;53.67
75964;DHT22;65820;44.726;37.764;2023-03-23T06:45:25;20.83;53.65
75964;DHT22;65820;44.726;37.764;2023-03-23T06:46:40;20.84;53.72
75964;DHT22;65820;44.726;37.764;2023-03-23T06:47:55;20.84;53.69
75964;DHT22;65820;44.726;37.764;2023-03-23T06:48:56;20.84;53.66
75964;DHT22;65820;44.726;37.764;2023-03-23T06:50:09;20.85;53.66
75964;DHT22;65820;44.726;37.764;2023-03-23T06:51:11;20.83;53.68
75964;DHT22;65820;44.726;37.764;2023-03-23T06:52:15;20.85;53.72
75964;DHT22;65820;44.726;37.764;2023-03-23T06:53:20;20.84;53.64
75964;DHT22;65820;44.726;37.764;2023-03-23T06:54:22;20.85;53.69
75964;DHT22;65820;44.726;37.764;2023-03-23T06:55:24;20.85;53.67
75964;DHT22;65820;44.726;37.764;2023-03-23T06:56:26;20.86;53.68
75964;DHT22;65820;44.726;37.764;2023-03-23T06:57:28;20.85;53.65
75964;DHT22;65820;44.726;37.764;2023-03-23T06:58:30;20.86;53.70
75964;DHT22;65820;44.726;37.764;2023-03-23T06:59:32;20.87;53.65
75964;DHT22;65820;44.726;37.764;2023-03-23T07:00:34;20.87;53.70
75964;DHT22;65820;44.726;37.764;2023-03-23T07:01:36;20.88;53.68
75964;DHT22;65820;44.726;37.764;2023-03-23T07:02:39;20.87;53.66
75964;DHT22;65820;44.726;37.764;2023-03-23T07:03:42;20.88;53.67
75964;DHT22;65820;44.726;37.764;2023-03-23T07:04:46;20.87;53.70
75964;DHT22;65820;44.726;37.764;2023-03-23T07:05:57;20.88;53.67
75964;DHT22;65820;44.726;37.764;2023-03-23T07:07:02;20.88;53.69
75964;DHT22;65820;44.726;37.764;2023-03-23T07:08:08;20.89;53.66
75964;DHT22;65820;44.726;37.764;2023-03-23T07:09:16;20.89;53.78
75964;DHT22;65820;44.726;37.764;2023-03-23T07:10:17;20.90;53.63
75964;DHT22;65820;44.726;37.764;2023-03-23T07:11:22;20.89;53.75
75964;DHT22;65820;44.726;37.764;2023-03-23T07:12:24;20.90;53.72